sensor_id;sensor_type;location;lat;lon;timestamp;pressure;altitude;pressure_sealevel;temperature;humidity
76070;BME280;64768;51.738;5.852;2022-11-15T00:02:30;100891.38;;;7.44;86.62
76070;BME280;64768;51.738;5.852;2022-11-15T00:05:09;100900.34;;;7.52;87.40
76070;BME280;64768;51.738;5.852;2022-11-15T00:07:50;100895.69;;;7.52;86.21
76070;BME280;64768;51.738;5.852;2022-11-15T00:10:31;100894.13;;;7.51;87.33
76070;BME280;64768;51.738;5.852;2022-11-15T00:16:14;100898.44;;;7.60;84.95
76070;BME280;64768;51.738;5.852;2022-11-15T00:18:45;100894.16;;;7.55;87.37
76070;BME280;64768;51.738;5.852;2022-11-15T00:21:20;100899.22;;;7.60;87.59
76070;BME280;64768;51.738;5.852;2022-11-15T00:24:03;100895.72;;;7.63;87.56
76070;BME280;64768;51.738;5.852;2022-11-15T00:26:44;100889.53;;;7.59;87.30
76070;BME280;64768;51.738;5.852;2022-11-15T00:29:25;100892.63;;;7.61;86.01
76070;BME280;64768;51.738;5.852;2022-11-15T00:35:20;100879.06;;;7.61;87.53
76070;BME280;64768;51.738;5.852;2022-11-15T00:37:53;100885.72;;;7.67;87.12
76070;BME280;64768;51.738;5.852;2022-11-15T00:40:34;100886.13;;;7.73;87.62
76070;BME280;64768;51.738;5.852;2022-11-15T00:43:15;100887.66;;;7.74;87.83
76070;BME280;64768;51.738;5.852;2022-11-15T00:45:51;100876.81;;;7.74;87.87
76070;BME280;64768;51.738;5.852;2022-11-15T00:48:32;100875.25;;;7.73;87.16
76070;BME280;64768;51.738;5.852;2022-11-15T00:51:23;100864.44;;;7.73;88.23
76070;BME280;64768;51.738;5.852;2022-11-15T00:53:52;100867.16;;;7.76;88.89
76070;BME280;64768;51.738;5.852;2022-11-15T00:56:24;100880.38;;;7.85;88.20
76070;BME280;64768;51.738;5.852;2022-11-15T00:59:05;100876.09;;;7.84;88.24
76070;BME280;64768;51.738;5.852;2022-11-15T01:01:46;100862.53;;;7.84;87.71
76070;BME280;64768;51.738;5.852;2022-11-15T01:04:24;100864.47;;;7.83;87.49
76070;BME280;64768;51.738;5.852;2022-11-15T01:07:01;100866.03;;;7.88;88.01
76070;BME280;64768;51.738;5.852;2022-11-15T01:09:41;100871.47;;;7.92;86.69
76070;BME280;64768;51.738;5.852;2022-11-15T01:12:22;100852.47;;;7.88;87.61
76070;BME280;64768;51.738;5.852;2022-11-15T01:14:51;100868.03;;;7.98;87.54
76070;BME280;64768;51.738;5.852;2022-11-15T01:17:32;100864.16;;;7.99;87.85
76070;BME280;64768;51.738;5.852;2022-11-15T01:20:13;100864.16;;;8.03;88.18
76070;BME280;64768;51.738;5.852;2022-11-15T01:22:57;100840.47;;;7.93;87.90
76070;BME280;64768;51.738;5.852;2022-11-15T01:25:27;100852.91;;;8.04;88.56
76070;BME280;64768;51.738;5.852;2022-11-15T01:28:07;100850.59;;;8.06;88.65
76070;BME280;64768;51.738;5.852;2022-11-15T01:30:37;100851.38;;;8.10;88.68
76070;BME280;64768;51.738;5.852;2022-11-15T01:33:18;100831.22;;;8.01;86.94
76070;BME280;64768;51.738;5.852;2022-11-15T01:36:03;100839.38;;;8.11;88.94
76070;BME280;64768;51.738;5.852;2022-11-15T01:57:54;100829.69;;;8.25;88.10
76070;BME280;64768;51.738;5.852;2022-11-15T02:00:36;100820.41;;;8.22;87.04
76070;BME280;64768;51.738;5.852;2022-11-15T02:03:17;100827.78;;;8.32;88.10
76070;BME280;64768;51.738;5.852;2022-11-15T02:05:50;100828.19;;;8.31;87.23
76070;BME280;64768;51.738;5.852;2022-11-15T02:08:31;100832.09;;;8.37;88.28
76070;BME280;64768;51.738;5.852;2022-11-15T02:11:12;100825.47;;;8.31;87.31
76070;BME280;64768;51.738;5.852;2022-11-15T02:13:57;100832.84;;;8.34;87.63
76070;BME280;64768;51.738;5.852;2022-11-15T02:16:47;100820.06;;;8.34;87.73
76070;BME280;64768;51.738;5.852;2022-11-15T02:19:47;100803.38;;;8.32;87.06
76070;BME280;64768;51.738;5.852;2022-11-15T02:22:42;100804.16;;;8.36;89.23
76070;BME280;64768;51.738;5.852;2022-11-15T02:25:39;100822.78;;;8.45;88.20
76070;BME280;64768;51.738;5.852;2022-11-15T02:28:40;100823.97;;;8.48;89.10
76070;BME280;64768;51.738;5.852;2022-11-15T02:31:44;100815.44;;;8.49;88.83
76070;BME280;64768;51.738;5.852;2022-11-15T02:34:24;100803.03;;;8.52;89.56
76070;BME280;64768;51.738;5.852;2022-11-15T02:37:13;100784.41;;;8.47;89.72
76070;BME280;64768;51.738;5.852;2022-11-15T02:40:02;100791.78;;;8.53;90.22
76070;BME280;64768;51.738;5.852;2022-11-15T02:42:50;100799.50;;;8.62;90.80
76070;BME280;64768;51.738;5.852;2022-11-15T02:45:37;100800.69;;;8.57;88.65
76070;BME280;64768;51.738;5.852;2022-11-15T02:48:32;100790.97;;;8.60;90.86
76070;BME280;64768;51.738;5.852;2022-11-15T02:51:04;100800.69;;;8.64;90.68
76070;BME280;64768;51.738;5.852;2022-11-15T02:53:46;100783.25;;;8.65;89.76
76070;BME280;64768;51.738;5.852;2022-11-15T02:56:27;100787.47;;;8.73;90.32
76070;BME280;64768;51.738;5.852;2022-11-15T02:59:08;100788.66;;;8.69;89.76
76070;BME280;64768;51.738;5.852;2022-11-15T03:02:01;100784.00;;;8.69;89.92
76070;BME280;64768;51.738;5.852;2022-11-15T03:04:52;100769.66;;;8.69;90.46
76070;BME280;64768;51.738;5.852;2022-11-15T03:07:28;100773.13;;;8.73;90.38
76070;BME280;64768;51.738;5.852;2022-11-15T03:10:14;100779.72;;;8.83;90.21
76070;BME280;64768;51.738;5.852;2022-11-15T03:13:05;100777.78;;;8.87;90.34
76070;BME280;64768;51.738;5.852;2022-11-15T03:15:57;100771.94;;;8.88;90.06
76070;BME280;64768;51.738;5.852;2022-11-15T03:18:48;100763.03;;;8.88;90.43
76070;BME280;64768;51.738;5.852;2022-11-15T03:24:53;100766.88;;;9.01;91.57
76070;BME280;64768;51.738;5.852;2022-11-15T03:27:35;100767.63;;;9.05;90.34
76070;BME280;64768;51.738;5.852;2022-11-15T03:30:17;100773.06;;;9.05;89.54
76070;BME280;64768;51.738;5.852;2022-11-15T03:33:00;100775.38;;;9.10;90.03
76070;BME280;64768;51.738;5.852;2022-11-15T03:35:44;100766.84;;;9.15;91.36
76070;BME280;64768;51.738;5.852;2022-11-15T03:38:26;100755.22;;;9.04;89.63
76070;BME280;64768;51.738;5.852;2022-11-15T03:41:17;100765.69;;;9.09;89.92
76070;BME280;64768;51.738;5.852;2022-11-15T03:44:06;100777.72;;;9.15;90.03
76070;BME280;64768;51.738;5.852;2022-11-15T03:46:56;100780.03;;;9.17;89.57
76070;BME280;64768;51.738;5.852;2022-11-15T03:49:32;100760.25;;;9.13;88.56
76070;BME280;64768;51.738;5.852;2022-11-15T03:52:17;100774.56;;;9.24;89.74
76070;BME280;64768;51.738;5.852;2022-11-15T03:54:52;100781.16;;;9.26;88.98
76070;BME280;64768;51.738;5.852;2022-11-15T03:57:26;100781.53;;;9.32;89.24
76070;BME280;64768;51.738;5.852;2022-11-15T04:00:08;100774.13;;;9.40;90.96
76070;BME280;64768;51.738;5.852;2022-11-15T04:02:49;100771.41;;;9.40;90.10
76070;BME280;64768;51.738;5.852;2022-11-15T04:05:19;100769.09;;;9.38;89.76
76070;BME280;64768;51.738;5.852;2022-11-15T04:07:48;100774.09;;;9.43;90.40
76070;BME280;64768;51.738;5.852;2022-11-15T04:10:18;100784.97;;;9.50;91.67
76070;BME280;64768;51.738;5.852;2022-11-15T04:13:07;100777.22;;;9.45;89.44
76070;BME280;64768;51.738;5.852;2022-11-15T04:15:47;100785.72;;;9.54;91.15
76070;BME280;64768;51.738;5.852;2022-11-15T04:18:28;100773.66;;;9.55;91.04
76070;BME280;64768;51.738;5.852;2022-11-15T04:21:09;100768.63;;;9.54;91.49
76070;BME280;64768;51.738;5.852;2022-11-15T04:23:49;100769.38;;;9.58;91.41
76070;BME280;64768;51.738;5.852;2022-11-15T04:26:30;100768.97;;;9.59;92.00
76070;BME280;64768;51.738;5.852;2022-11-15T04:29:05;100770.56;;;9.60;91.39
76070;BME280;64768;51.738;5.852;2022-11-15T04:31:46;100781.81;;;9.62;90.51
76070;BME280;64768;51.738;5.852;2022-11-15T04:34:27;100776.75;;;9.65;90.20
76070;BME280;64768;51.738;5.852;2022-11-15T04:37:06;100779.47;;;9.61;90.80
76070;BME280;64768;51.738;5.852;2022-11-15T04:39:38;100780.22;;;9.65;89.83
76070;BME280;64768;51.738;5.852;2022-11-15T04:42:19;100776.72;;;9.68;91.23
76070;BME280;64768;51.738;5.852;2022-11-15T04:45:04;100776.31;;;9.70;91.87
76070;BME280;64768;51.738;5.852;2022-11-15T04:47:45;100775.91;;;9.75;90.99
76070;BME280;64768;51.738;5.852;2022-11-15T04:50:26;100772.41;;;9.74;91.25
76070;BME280;64768;51.738;5.852;2022-11-15T04:53:07;100772.00;;;9.79;91.91
76070;BME280;64768;51.738;5.852;2022-11-15T04:55:38;100764.66;;;9.76;91.93
76070;BME280;64768;51.738;5.852;2022-11-15T04:58:19;100774.69;;;9.83;91.81
76070;BME280;64768;51.738;5.852;2022-11-15T05:04:13;100763.81;;;9.83;92.43
76070;BME280;64768;51.738;5.852;2022-11-15T05:07:00;100766.91;;;9.85;92.34
76070;BME280;64768;51.738;5.852;2022-11-15T05:09:28;100751.41;;;9.82;91.87
76070;BME280;64768;51.738;5.852;2022-11-15T05:12:09;100750.66;;;9.78;90.76
76070;BME280;64768;51.738;5.852;2022-11-15T05:14:50;100749.44;;;9.82;91.08
76070;BME280;64768;51.738;5.852;2022-11-15T05:17:31;100753.31;;;9.85;91.89
76070;BME280;64768;51.738;5.852;2022-11-15T05:20:04;100752.94;;;9.83;91.56
76070;BME280;64768;51.738;5.852;2022-11-15T05:22:35;100762.63;;;9.87;91.00
76070;BME280;64768;51.738;5.852;2022-11-15T05:25:16;100754.50;;;9.80;90.83
76070;BME280;64768;51.738;5.852;2022-11-15T05:27:57;100757.19;;;9.87;90.88
76070;BME280;64768;51.738;5.852;2022-11-15T05:30:31;100758.34;;;9.86;89.84
76070;BME280;64768;51.738;5.852;2022-11-15T05:33:02;100761.06;;;9.86;90.98
76070;BME280;64768;51.738;5.852;2022-11-15T05:38:48;100751.41;;;9.82;90.37
76070;BME280;64768;51.738;5.852;2022-11-15T05:41:32;100759.13;;;9.87;91.02
76070;BME280;64768;51.738;5.852;2022-11-15T05:44:04;100763.38;;;9.91;91.51
76070;BME280;64768;51.738;5.852;2022-11-15T05:46:46;100747.47;;;9.86;91.60
76070;BME280;64768;51.738;5.852;2022-11-15T05:49:21;100760.66;;;9.95;91.67
76070;BME280;64768;51.738;5.852;2022-11-15T05:51:53;100760.28;;;9.89;90.55
76070;BME280;64768;51.738;5.852;2022-11-15T05:54:27;100752.88;;;9.90;91.79
76070;BME280;64768;51.738;5.852;2022-11-15T05:57:08;100749.41;;;9.89;91.62
76070;BME280;64768;51.738;5.852;2022-11-15T05:59:39;100759.50;;;9.92;91.55
76070;BME280;64768;51.738;5.852;2022-11-15T06:02:20;100775.78;;;9.96;92.20
76070;BME280;64768;51.738;5.852;2022-11-15T06:04:52;100748.25;;;9.87;91.51
76070;BME280;64768;51.738;5.852;2022-11-15T06:07:31;100759.06;;;9.98;91.45
76070;BME280;64768;51.738;5.852;2022-11-15T06:10:17;100741.59;;;9.91;92.77
76070;BME280;64768;51.738;5.852;2022-11-15T06:12:46;100749.38;;;9.97;92.45
76070;BME280;64768;51.738;5.852;2022-11-15T06:15:15;100755.59;;;9.93;92.20
76070;BME280;64768;51.738;5.852;2022-11-15T06:17:56;100772.66;;;10.01;92.61
76070;BME280;64768;51.738;5.852;2022-11-15T06:20:27;100766.09;;;9.95;91.60
76070;BME280;64768;51.738;5.852;2022-11-15T06:23:03;100762.59;;;9.95;91.77
76070;BME280;64768;51.738;5.852;2022-11-15T06:25:48;100765.28;;;9.98;91.29
76070;BME280;64768;51.738;5.852;2022-11-15T06:28:20;100753.66;;;9.94;91.31
76070;BME280;64768;51.738;5.852;2022-11-15T06:30:51;100755.53;;;10.01;91.29
76070;BME280;64768;51.738;5.852;2022-11-15T06:33:20;100758.22;;;10.04;92.21
76070;BME280;64768;51.738;5.852;2022-11-15T06:35:49;100764.06;;;10.06;92.77
76070;BME280;64768;51.738;5.852;2022-11-15T06:38:30;100767.13;;;10.08;92.58
76070;BME280;64768;51.738;5.852;2022-11-15T06:41:07;100774.16;;;10.09;92.05
76070;BME280;64768;51.738;5.852;2022-11-15T06:43:37;100776.09;;;10.05;91.51
76070;BME280;64768;51.738;5.852;2022-11-15T06:46:06;100762.94;;;10.00;91.34
76070;BME280;64768;51.738;5.852;2022-11-15T06:48:36;100786.59;;;10.07;91.62
76070;BME280;64768;51.738;5.852;2022-11-15T06:51:05;100787.75;;;10.06;90.97
76070;BME280;64768;51.738;5.852;2022-11-15T06:53:35;100792.03;;;10.07;90.19
76070;BME280;64768;51.738;5.852;2022-11-15T06:56:08;100801.00;;;10.04;88.77
76070;BME280;64768;51.738;5.852;2022-11-15T06:58:41;100793.25;;;9.99;88.43
76070;BME280;64768;51.738;5.852;2022-11-15T07:01:12;100791.25;;;10.06;89.13
76070;BME280;64768;51.738;5.852;2022-11-15T07:03:41;100808.34;;;10.07;89.16
76070;BME280;64768;51.738;5.852;2022-11-15T07:06:11;100802.91;;;10.07;89.24
76070;BME280;64768;51.738;5.852;2022-11-15T07:08:41;100802.16;;;10.10;90.26
76070;BME280;64768;51.738;5.852;2022-11-15T07:11:13;100803.69;;;10.07;88.80
76070;BME280;64768;51.738;5.852;2022-11-15T07:13:42;100794.38;;;10.05;88.92
76070;BME280;64768;51.738;5.852;2022-11-15T07:16:11;100803.31;;;10.05;88.11
76070;BME280;64768;51.738;5.852;2022-11-15T07:18:41;100811.47;;;10.09;88.31
76070;BME280;64768;51.738;5.852;2022-11-15T07:21:09;100814.97;;;10.09;88.90
76070;BME280;64768;51.738;5.852;2022-11-15T07:23:41;100807.22;;;10.04;87.91
76070;BME280;64768;51.738;5.852;2022-11-15T07:26:39;100815.75;;;10.10;87.99
76070;BME280;64768;51.738;5.852;2022-11-15T07:29:10;100806.03;;;10.05;87.56
76070;BME280;64768;51.738;5.852;2022-11-15T07:31:40;100800.63;;;10.02;87.26
76070;BME280;64768;51.738;5.852;2022-11-15T07:34:10;100806.41;;;10.11;88.25
76070;BME280;64768;51.738;5.852;2022-11-15T07:36:39;100810.69;;;10.12;89.52
76070;BME280;64768;51.738;5.852;2022-11-15T07:39:08;100814.13;;;10.16;90.28
76070;BME280;64768;51.738;5.852;2022-11-15T07:41:52;100812.22;;;10.13;89.76
76070;BME280;64768;51.738;5.852;2022-11-15T07:44:42;100826.19;;;10.15;89.13
76070;BME280;64768;51.738;5.852;2022-11-15T07:47:23;100820.00;;;10.11;88.46
76070;BME280;64768;51.738;5.852;2022-11-15T07:50:07;100819.22;;;10.14;88.94
76070;BME280;64768;51.738;5.852;2022-11-15T07:52:53;100820.75;;;10.15;88.64
76070;BME280;64768;51.738;5.852;2022-11-15T07:55:34;100818.78;;;10.19;88.64
76070;BME280;64768;51.738;5.852;2022-11-15T07:58:12;100809.13;;;10.11;89.63
76070;BME280;64768;51.738;5.852;2022-11-15T08:00:43;100809.84;;;10.18;89.52
76070;BME280;64768;51.738;5.852;2022-11-15T08:03:23;100807.50;;;10.20;90.26
76070;BME280;64768;51.738;5.852;2022-11-15T08:06:05;100812.94;;;10.24;90.70
76070;BME280;64768;51.738;5.852;2022-11-15T08:08:46;100816.44;;;10.28;90.25
76070;BME280;64768;51.738;5.852;2022-11-15T08:11:15;100811.31;;;10.34;90.34
76070;BME280;64768;51.738;5.852;2022-11-15T08:16:59;100813.97;;;10.41;91.38
76070;BME280;64768;51.738;5.852;2022-11-15T08:19:31;100815.56;;;10.42;90.86
76070;BME280;64768;51.738;5.852;2022-11-15T08:22:07;100819.06;;;10.42;90.69
76070;BME280;64768;51.738;5.852;2022-11-15T08:24:47;100805.84;;;10.37;90.63
76070;BME280;64768;51.738;5.852;2022-11-15T08:27:28;100820.22;;;10.41;90.61
76070;BME280;64768;51.738;5.852;2022-11-15T08:30:10;100799.63;;;10.37;91.26
76070;BME280;64768;51.738;5.852;2022-11-15T08:32:57;100792.28;;;10.34;91.40
76070;BME280;64768;51.738;5.852;2022-11-15T08:35:26;100807.75;;;10.40;92.59
76070;BME280;64768;51.738;5.852;2022-11-15T08:37:58;100820.59;;;10.40;91.25
76070;BME280;64768;51.738;5.852;2022-11-15T08:40:27;100817.09;;;10.39;91.23
76070;BME280;64768;51.738;5.852;2022-11-15T08:42:56;100820.63;;;10.36;90.94
76070;BME280;64768;51.738;5.852;2022-11-15T08:45:28;100829.19;;;10.38;90.85
76070;BME280;64768;51.738;5.852;2022-11-15T08:48:00;100823.31;;;10.40;90.69
76070;BME280;64768;51.738;5.852;2022-11-15T08:50:31;100819.84;;;10.39;90.72
76070;BME280;64768;51.738;5.852;2022-11-15T08:53:12;100824.09;;;10.40;90.41
76070;BME280;64768;51.738;5.852;2022-11-15T08:55:42;100817.88;;;10.40;90.03
76070;BME280;64768;51.738;5.852;2022-11-15T08:58:22;100819.44;;;10.41;90.39
76070;BME280;64768;51.738;5.852;2022-11-15T09:01:04;100811.66;;;10.39;90.23
76070;BME280;64768;51.738;5.852;2022-11-15T09:04:04;100805.03;;;10.40;91.56
76070;BME280;64768;51.738;5.852;2022-11-15T09:06:44;100815.94;;;10.40;91.18
76070;BME280;64768;51.738;5.852;2022-11-15T09:09:20;100800.00;;;10.42;91.28
76070;BME280;64768;51.738;5.852;2022-11-15T09:11:58;100804.25;;;10.43;91.64
76070;BME280;64768;51.738;5.852;2022-11-15T09:14:27;100808.91;;;10.46;91.00
76070;BME280;64768;51.738;5.852;2022-11-15T09:17:00;100805.00;;;10.47;91.77
76070;BME280;64768;51.738;5.852;2022-11-15T09:23:04;100795.22;;;10.53;91.62
76070;BME280;64768;51.738;5.852;2022-11-15T09:25:34;100795.19;;;10.57;91.59
76070;BME280;64768;51.738;5.852;2022-11-15T09:28:06;100793.22;;;10.61;91.72
76070;BME280;64768;51.738;5.852;2022-11-15T09:30:36;100786.56;;;10.66;91.92
76070;BME280;64768;51.738;5.852;2022-11-15T09:33:08;100784.94;;;10.72;92.43
76070;BME280;64768;51.738;5.852;2022-11-15T09:35:49;100777.94;;;10.74;91.79
76070;BME280;64768;51.738;5.852;2022-11-15T09:38:39;100770.91;;;10.73;92.17
76070;BME280;64768;51.738;5.852;2022-11-15T09:41:31;100774.41;;;10.77;92.07
76070;BME280;64768;51.738;5.852;2022-11-15T09:44:43;100758.47;;;10.76;92.92
76070;BME280;64768;51.738;5.852;2022-11-15T09:47:58;100758.72;;;10.89;92.88
76070;BME280;64768;51.738;5.852;2022-11-15T09:50:36;100750.16;;;10.90;92.58
76070;BME280;64768;51.738;5.852;2022-11-15T09:53:24;100765.16;;;11.05;91.45
76070;BME280;64768;51.738;5.852;2022-11-15T09:56:11;100749.97;;;11.04;91.19
76070;BME280;64768;51.738;5.852;2022-11-15T09:59:26;100744.94;;;11.03;90.08
76070;BME280;64768;51.738;5.852;2022-11-15T10:02:08;100737.56;;;11.00;90.80
76070;BME280;64768;51.738;5.852;2022-11-15T10:04:46;100741.81;;;11.04;90.15
76070;BME280;64768;51.738;5.852;2022-11-15T10:07:44;100740.63;;;11.05;90.13
76070;BME280;64768;51.738;5.852;2022-11-15T10:10:48;100736.34;;;11.08;89.28
76070;BME280;64768;51.738;5.852;2022-11-15T10:13:41;100745.19;;;11.16;89.48
76070;BME280;64768;51.738;5.852;2022-11-15T10:16:51;100747.97;;;11.12;89.21
76070;BME280;64768;51.738;5.852;2022-11-15T10:19:27;100739.06;;;11.08;88.92
76070;BME280;64768;51.738;5.852;2022-11-15T10:22:20;100739.38;;;11.13;89.07
76070;BME280;64768;51.738;5.852;2022-11-15T10:25:12;100723.53;;;11.01;88.62
76070;BME280;64768;51.738;5.852;2022-11-15T10:27:52;100720.03;;;11.01;88.14
76070;BME280;64768;51.738;5.852;2022-11-15T10:33:38;100728.88;;;11.12;87.22
76070;BME280;64768;51.738;5.852;2022-11-15T10:36:18;100719.22;;;11.07;87.50
76070;BME280;64768;51.738;5.852;2022-11-15T10:38:54;100705.59;;;11.04;87.22
76070;BME280;64768;51.738;5.852;2022-11-15T10:41:39;100692.38;;;11.02;86.72
76070;BME280;64768;51.738;5.852;2022-11-15T10:44:31;100696.25;;;11.05;86.32
76070;BME280;64768;51.738;5.852;2022-11-15T10:47:24;100697.00;;;11.05;85.65
76070;BME280;64768;51.738;5.852;2022-11-15T10:50:31;100703.22;;;11.09;86.31
76070;BME280;64768;51.738;5.852;2022-11-15T10:53:10;100693.44;;;11.12;85.71
76070;BME280;64768;51.738;5.852;2022-11-15T10:56:05;100685.34;;;11.05;85.02
76070;BME280;64768;51.738;5.852;2022-11-15T10:58:52;100683.78;;;11.07;85.89
76070;BME280;64768;51.738;5.852;2022-11-15T11:01:45;100703.94;;;11.13;85.31
76070;BME280;64768;51.738;5.852;2022-11-15T11:04:17;100680.97;;;11.15;84.90
76070;BME280;64768;51.738;5.852;2022-11-15T11:06:52;100687.94;;;11.16;85.01
76070;BME280;64768;51.738;5.852;2022-11-15T11:09:30;100679.38;;;11.17;84.46
76070;BME280;64768;51.738;5.852;2022-11-15T11:12:02;100689.44;;;11.20;84.44
76070;BME280;64768;51.738;5.852;2022-11-15T11:14:47;100675.16;;;11.12;84.91
76070;BME280;64768;51.738;5.852;2022-11-15T11:17:44;100672.78;;;11.15;84.66
76070;BME280;64768;51.738;5.852;2022-11-15T11:20:39;100670.34;;;11.24;84.30
76070;BME280;64768;51.738;5.852;2022-11-15T11:23:36;100678.09;;;11.25;84.32
76070;BME280;64768;51.738;5.852;2022-11-15T11:26:33;100676.81;;;11.33;84.03
76070;BME280;64768;51.738;5.852;2022-11-15T11:29:24;100671.41;;;11.30;83.53
76070;BME280;64768;51.738;5.852;2022-11-15T11:32:00;100670.22;;;11.31;82.72
76070;BME280;64768;51.738;5.852;2022-11-15T11:34:40;100657.84;;;11.26;83.05
76070;BME280;64768;51.738;5.852;2022-11-15T11:37:33;100666.31;;;11.32;82.98
76070;BME280;64768;51.738;5.852;2022-11-15T11:40:17;100659.38;;;11.27;81.99
76070;BME280;64768;51.738;5.852;2022-11-15T11:42:55;100652.81;;;11.25;82.62
76070;BME280;64768;51.738;5.852;2022-11-15T11:45:45;100656.28;;;11.25;82.40
76070;BME280;64768;51.738;5.852;2022-11-15T11:48:23;100643.06;;;11.24;81.99
76070;BME280;64768;51.738;5.852;2022-11-15T11:51:05;100644.63;;;11.25;82.51
76070;BME280;64768;51.738;5.852;2022-11-15T11:53:41;100641.13;;;11.24;81.34
76070;BME280;64768;51.738;5.852;2022-11-15T11:56:22;100635.34;;;11.19;81.05
76070;BME280;64768;51.738;5.852;2022-11-15T11:58:54;100626.81;;;11.17;80.47
76070;BME280;64768;51.738;5.852;2022-11-15T12:01:26;100617.81;;;11.20;79.60
76070;BME280;64768;51.738;5.852;2022-11-15T12:04:01;100603.03;;;11.17;80.30
76070;BME280;64768;51.738;5.852;2022-11-15T12:06:50;100608.03;;;11.22;79.97
76070;BME280;64768;51.738;5.852;2022-11-15T12:09:23;100601.81;;;11.22;79.80
76070;BME280;64768;51.738;5.852;2022-11-15T12:12:06;100592.09;;;11.21;79.77
76070;BME280;64768;51.738;5.852;2022-11-15T12:14:42;100585.06;;;11.23;79.32
76070;BME280;64768;51.738;5.852;2022-11-15T12:17:12;100597.44;;;11.28;78.89
76070;BME280;64768;51.738;5.852;2022-11-15T12:19:56;100590.34;;;11.34;79.34
76070;BME280;64768;51.738;5.852;2022-11-15T12:22:34;100586.06;;;11.33;78.97
76070;BME280;64768;51.738;5.852;2022-11-15T12:25:14;100576.72;;;11.34;79.51
76070;BME280;64768;51.738;5.852;2022-11-15T12:27:51;100578.56;;;11.40;78.82
76070;BME280;64768;51.738;5.852;2022-11-15T12:30:25;100562.56;;;11.42;78.19
76070;BME280;64768;51.738;5.852;2022-11-15T12:32:58;100554.81;;;11.41;77.69
76070;BME280;64768;51.738;5.852;2022-11-15T12:35:32;100552.38;;;11.47;78.17
76070;BME280;64768;51.738;5.852;2022-11-15T12:38:04;100546.03;;;11.53;78.58
76070;BME280;64768;51.738;5.852;2022-11-15T12:40:36;100537.84;;;11.53;77.89
76070;BME280;64768;51.738;5.852;2022-11-15T12:43:39;100539.75;;;11.56;77.80
76070;BME280;64768;51.738;5.852;2022-11-15T12:46:19;100530.75;;;11.59;77.50
76070;BME280;64768;51.738;5.852;2022-11-15T12:48:54;100527.94;;;11.63;77.46
76070;BME280;64768;51.738;5.852;2022-11-15T12:54:57;100508.84;;;11.63;76.84
76070;BME280;64768;51.738;5.852;2022-11-15T12:57:48;100520.88;;;11.65;77.50
76070;BME280;64768;51.738;5.852;2022-11-15T13:00:46;100508.78;;;11.66;76.74
76070;BME280;64768;51.738;5.852;2022-11-15T13:03:22;100515.72;;;11.71;77.08
76070;BME280;64768;51.738;5.852;2022-11-15T13:08:47;100491.97;;;11.71;77.38
76070;BME280;64768;51.738;5.852;2022-11-15T13:11:48;100488.03;;;11.72;76.79
76070;BME280;64768;51.738;5.852;2022-11-15T13:14:38;100482.97;;;11.71;76.21
76070;BME280;64768;51.738;5.852;2022-11-15T13:17:30;100474.88;;;11.67;76.11
76070;BME280;64768;51.738;5.852;2022-11-15T13:20:20;100479.09;;;11.72;76.50
76070;BME280;64768;51.738;5.852;2022-11-15T13:22:51;100465.38;;;11.76;77.14
76070;BME280;64768;51.738;5.852;2022-11-15T13:25:31;100463.44;;;11.76;75.36
76070;BME280;64768;51.738;5.852;2022-11-15T13:28:10;100461.88;;;11.75;75.80
76070;BME280;64768;51.738;5.852;2022-11-15T13:30:50;100456.50;;;11.71;75.32
76070;BME280;64768;51.738;5.852;2022-11-15T13:33:24;100457.97;;;11.76;75.44
76070;BME280;64768;51.738;5.852;2022-11-15T13:35:55;100450.94;;;11.79;74.51
76070;BME280;64768;51.738;5.852;2022-11-15T13:38:27;100452.16;;;11.74;75.61
76070;BME280;64768;51.738;5.852;2022-11-15T13:40:58;100451.28;;;11.81;75.67
76070;BME280;64768;51.738;5.852;2022-11-15T13:43:34;100449.66;;;11.83;75.61
76070;BME280;64768;51.738;5.852;2022-11-15T13:46:09;100440.72;;;11.83;75.44
76070;BME280;64768;51.738;5.852;2022-11-15T13:48:43;100434.06;;;11.84;75.60
76070;BME280;64768;51.738;5.852;2022-11-15T13:51:18;100425.97;;;11.80;75.29
76070;BME280;64768;51.738;5.852;2022-11-15T13:53:52;100424.25;;;11.86;75.48
76070;BME280;64768;51.738;5.852;2022-11-15T13:56:22;100430.16;;;11.85;75.64
76070;BME280;64768;51.738;5.852;2022-11-15T13:58:51;100420.78;;;11.86;75.35
76070;BME280;64768;51.738;5.852;2022-11-15T14:01:21;100417.28;;;11.85;75.39
76070;BME280;64768;51.738;5.852;2022-11-15T14:03:56;100414.63;;;11.82;74.82
76070;BME280;64768;51.738;5.852;2022-11-15T14:06:26;100414.13;;;11.87;74.60
76070;BME280;64768;51.738;5.852;2022-11-15T14:09:02;100400.97;;;11.82;74.15
76070;BME280;64768;51.738;5.852;2022-11-15T14:11:33;100405.25;;;11.83;75.03
76070;BME280;64768;51.738;5.852;2022-11-15T14:14:12;100400.63;;;11.80;75.48
76070;BME280;64768;51.738;5.852;2022-11-15T14:16:43;100392.50;;;11.76;74.86
76070;BME280;64768;51.738;5.852;2022-11-15T14:19:37;100391.31;;;11.77;75.34
76070;BME280;64768;51.738;5.852;2022-11-15T14:22:24;100388.59;;;11.77;73.61
76070;BME280;64768;51.738;5.852;2022-11-15T14:25:15;100374.59;;;11.75;74.27
76070;BME280;64768;51.738;5.852;2022-11-15T14:28:11;100379.19;;;11.78;75.30
76070;BME280;64768;51.738;5.852;2022-11-15T14:30:42;100379.28;;;11.75;75.13
76070;BME280;64768;51.738;5.852;2022-11-15T14:33:31;100369.22;;;11.71;73.01
76070;BME280;64768;51.738;5.852;2022-11-15T14:36:06;100362.19;;;11.70;72.24
76070;BME280;64768;51.738;5.852;2022-11-15T14:38:35;100371.88;;;11.75;74.55
76070;BME280;64768;51.738;5.852;2022-11-15T14:41:04;100357.13;;;11.72;73.38
76070;BME280;64768;51.738;5.852;2022-11-15T14:43:33;100347.44;;;11.68;75.14
76070;BME280;64768;51.738;5.852;2022-11-15T14:46:03;100345.91;;;11.67;73.30
76070;BME280;64768;51.738;5.852;2022-11-15T14:48:32;100346.59;;;11.71;73.70
76070;BME280;64768;51.738;5.852;2022-11-15T14:51:10;100335.91;;;11.60;74.16
76070;BME280;64768;51.738;5.852;2022-11-15T14:53:39;100329.34;;;11.58;74.03